Time;durP1;ratioP1;P1;durP2;ratioP2;P2;SDS_P1;SDS_P2;PMS_P1;PMS_P2;Temp;Humidity;BMP_temperature;BMP_pressure;BME280_temperature;BME280_humidity;BME280_pressure;Samples;Min_cycle;Max_cycle;Signal;HPM_P1;HPM_P2
2021/08/06 00:00:20;;;;;;;0.43;0.43;;;29.40;77.90;;;;;;5031442;28;20458;-43
2021/08/06 00:02:51;;;;;;;2.03;0.60;;;29.40;78.70;;;;;;5041662;28;20472;-43
2021/08/06 00:05:23;;;;;;;0.90;0.50;;;29.50;76.70;;;;;;5041962;28;20477;-46
2021/08/06 00:07:55;;;;;;;0.40;0.37;;;29.40;77.10;;;;;;5041832;28;20488;-45
2021/08/06 00:10:27;;;;;;;0.50;0.50;;;29.20;78.20;;;;;;5041662;28;20461;-44
2021/08/06 00:12:58;;;;;;;1.33;0.50;;;29.30;78.30;;;;;;5034999;27;20560;-43
2021/08/06 00:15:29;;;;;;;1.10;0.40;;;29.20;78.90;;;;;;5041806;28;20522;-44
2021/08/06 00:18:00;;;;;;;0.50;0.50;;;29.20;79.70;;;;;;5041878;28;20823;-43
2021/08/06 00:20:31;;;;;;;0.50;0.50;;;29.20;79.80;;;;;;5041157;28;20455;-44
2021/08/06 00:23:04;;;;;;;0.40;0.40;;;29.10;81.10;;;;;;5043557;28;20446;-42
2021/08/06 00:25:35;;;;;;;1.70;0.60;;;29.20;80.60;;;;;;5042059;28;20474;-44
2021/08/06 00:28:07;;;;;;;1.73;0.70;;;29.30;78.50;;;;;;5041864;28;20458;-45
2021/08/06 00:30:38;;;;;;;2.33;1.00;;;29.10;78.50;;;;;;5039062;28;20490;-43
2021/08/06 00:33:10;;;;;;;1.40;0.80;;;29.10;79.40;;;;;;5042292;28;20454;-42
2021/08/06 00:35:41;;;;;;;0.80;0.50;;;28.90;79.90;;;;;;5041230;28;20489;-43
2021/08/06 00:38:13;;;;;;;0.70;0.70;;;28.90;79.30;;;;;;5040151;28;20447;-44
2021/08/06 00:40:44;;;;;;;0.90;0.90;;;28.80;80.80;;;;;;5032515;28;20515;-43
2021/08/06 00:43:16;;;;;;;0.90;0.70;;;28.80;81.50;;;;;;5027240;28;20507;-44
2021/08/06 00:45:47;;;;;;;2.10;0.40;;;28.70;82.20;;;;;;5041737;28;20462;-43
2021/08/06 00:48:18;;;;;;;0.67;0.40;;;28.60;82.50;;;;;;5042617;28;20457;-43
2021/08/06 00:50:49;;;;;;;0.40;0.37;;;28.70;84.10;;;;;;5041037;28;20459;-43
2021/08/06 00:53:23;;;;;;;0.40;0.33;;;28.60;83.70;;;;;;5041735;28;20450;-43
2021/08/06 00:55:54;;;;;;;1.27;0.40;;;28.50;83.50;;;;;;5042178;28;20477;-42
2021/08/06 00:58:24;;;;;;;0.80;0.50;;;28.40;83.50;;;;;;5042095;28;20487;-43
2021/08/06 01:00:56;;;;;;;0.60;0.60;;;28.30;83.90;;;;;;5066789;27;20551;-43
2021/08/06 01:03:29;;;;;;;1.03;0.70;;;28.20;84.60;;;;;;5041406;28;20488;-42
2021/08/06 01:06:08;;;;;;;1.27;1.17;;;28.20;84.30;;;;;;5040118;28;20513;-42
2021/08/06 01:08:49;;;;;;;0.83;0.83;;;28.10;84.40;;;;;;5041522;28;20445;-43
2021/08/06 01:11:23;;;;;;;0.40;0.30;;;28.10;85.00;;;;;;5055181;28;20444;-43
2021/08/06 01:13:56;;;;;;;0.90;0.47;;;27.90;86.00;;;;;;5044451;28;20448;-43
2021/08/06 01:16:30;;;;;;;1.50;0.53;;;27.80;87.00;;;;;;5042636;28;20461;-44
2021/08/06 01:19:08;;;;;;;0.50;0.50;;;27.80;87.70;;;;;;5041734;28;20972;-44
2021/08/06 01:21:44;;;;;;;0.60;0.50;;;27.70;89.50;;;;;;5040338;28;20467;-44
2021/08/06 01:24:23;;;;;;;0.50;0.47;;;27.70;87.20;;;;;;5041979;28;20954;-44
2021/08/06 01:26:57;;;;;;;0.73;0.60;;;27.60;87.20;;;;;;5028616;28;20532;-44
2021/08/06 01:29:29;;;;;;;1.50;0.97;;;27.60;90.10;;;;;;5040973;28;20450;-43
2021/08/06 01:32:00;;;;;;;0.60;0.40;;;27.60;88.60;;;;;;5042260;28;20483;-43
2021/08/06 01:34:31;;;;;;;0.43;0.30;;;27.60;87.60;;;;;;5047777;28;20487;-43
2021/08/06 01:37:02;;;;;;;1.30;1.20;;;27.50;88.30;;;;;;5040514;28;20513;-43
2021/08/06 01:39:33;;;;;;;2.93;1.80;;;27.50;88.90;;;;;;5041270;28;20536;-43
2021/08/06 01:42:11;;;;;;;1.17;0.33;;;27.50;88.10;;;;;;5040399;28;20442;-42
2021/08/06 01:44:49;;;;;;;1.43;0.40;;;27.40;89.10;;;;;;5043245;28;20548;-43
2021/08/06 01:47:24;;;;;;;0.80;0.50;;;27.40;88.50;;;;;;5049185;28;20955;-43
2021/08/06 01:49:59;;;;;;;1.90;0.30;;;27.40;87.80;;;;;;5040892;28;20489;-43
2021/08/06 01:52:40;;;;;;;0.53;0.40;;;27.40;88.60;;;;;;5038650;28;20492;-43
2021/08/06 01:55:14;;;;;;;0.60;0.40;;;27.20;89.20;;;;;;5040690;28;20514;-43
2021/08/06 01:57:51;;;;;;;1.17;0.40;;;27.20;90.00;;;;;;5044882;28;20446;-43
2021/08/06 02:00:22;;;;;;;0.67;0.50;;;27.00;90.00;;;;;;5039961;28;20451;-43
2021/08/06 02:02:53;;;;;;;0.47;0.30;;;27.00;90.10;;;;;;5040868;28;20476;-43
2021/08/06 02:05:26;;;;;;;0.50;0.50;;;26.90;90.00;;;;;;5038938;28;20516;-43
2021/08/06 02:07:57;;;;;;;0.40;0.40;;;26.80;90.50;;;;;;5040809;28;20453;-43
2021/08/06 02:10:30;;;;;;;0.40;0.40;;;26.80;90.70;;;;;;5040221;28;20476;-41
2021/08/06 02:13:03;;;;;;;1.23;0.60;;;26.70;91.00;;;;;;5040956;28;20454;-42
2021/08/06 02:15:37;;;;;;;0.50;0.50;;;26.60;91.10;;;;;;5044800;28;20575;-43
2021/08/06 02:18:09;;;;;;;0.60;0.60;;;26.50;91.40;;;;;;5038189;28;20500;-42
2021/08/06 02:20:41;;;;;;;0.53;0.50;;;26.40;91.50;;;;;;5039272;28;21268;-43
2021/08/06 02:23:13;;;;;;;0.50;0.50;;;26.30;92.10;;;;;;5038222;28;20454;-41
2021/08/06 02:25:46;;;;;;;0.80;0.80;;;26.10;92.60;;;;;;5040753;28;20450;-42
2021/08/06 02:28:20;;;;;;;0.77;0.50;;;26.10;92.80;;;;;;5040771;28;20455;-42
2021/08/06 02:30:54;;;;;;;0.73;0.73;;;26.00;92.90;;;;;;5039940;28;20550;-42
2021/08/06 02:33:27;;;;;;;8.53;0.80;;;26.00;93.20;;;;;;5044782;28;20486;-42
2021/08/06 02:35:59;;;;;;;0.90;0.90;;;26.00;93.50;;;;;;5080668;27;20501;-42
2021/08/06 02:38:30;;;;;;;0.70;0.70;;;25.90;93.60;;;;;;5041484;28;20473;-43
2021/08/06 02:41:01;;;;;;;0.50;0.50;;;25.80;93.70;;;;;;5039154;28;20472;-43
2021/08/06 02:43:34;;;;;;;0.73;0.73;;;25.70;93.70;;;;;;5035795;28;20502;-42
2021/08/06 02:46:05;;;;;;;1.90;0.70;;;25.60;94.30;;;;;;5035345;28;20448;-41
2021/08/06 02:48:36;;;;;;;0.47;0.47;;;25.40;94.70;;;;;;5056373;28;20805;-42
2021/08/06 02:51:07;;;;;;;0.50;0.50;;;25.30;95.20;;;;;;5038256;28;20457;-43
2021/08/06 02:53:38;;;;;;;0.50;0.50;;;25.20;95.40;;;;;;5061327;28;20441;-41
2021/08/06 02:56:10;;;;;;;1.27;0.60;;;25.00;95.60;;;;;;5066251;27;20575;-41
2021/08/06 02:58:42;;;;;;;0.50;0.50;;;25.00;96.20;;;;;;5045265;28;20468;-42
2021/08/06 03:01:13;;;;;;;4.70;0.80;;;25.00;96.50;;;;;;5037577;28;20934;-41
2021/08/06 03:03:44;;;;;;;0.77;0.77;;;24.80;96.80;;;;;;5039869;28;20476;-41
2021/08/06 03:06:16;;;;;;;0.93;0.50;;;24.80;97.10;;;;;;5034262;28;20461;-43
2021/08/06 03:08:46;;;;;;;0.50;0.40;;;24.60;97.00;;;;;;5039505;28;20513;-41
2021/08/06 03:11:17;;;;;;;0.50;0.50;;;24.60;97.00;;;;;;5038319;28;20566;-45
2021/08/06 03:13:50;;;;;;;1.87;0.60;;;24.40;97.30;;;;;;5039313;28;20465;-41
2021/08/06 03:16:21;;;;;;;0.60;0.60;;;24.30;97.90;;;;;;5038287;28;20478;-40
2021/08/06 03:18:52;;;;;;;1.07;0.50;;;24.30;98.40;;;;;;5027473;28;20445;-39
2021/08/06 03:21:23;;;;;;;0.50;0.50;;;24.20;98.90;;;;;;5037765;28;20488;-40
2021/08/06 03:23:54;;;;;;;1.20;0.60;;;24.00;99.50;;;;;;5039474;28;20460;-41
2021/08/06 03:26:25;;;;;;;0.60;0.60;;;24.00;99.90;;;;;;5039032;28;20468;-42
2021/08/06 03:28:58;;;;;;;0.70;0.70;;;23.90;99.90;;;;;;5038980;28;20465;-39
2021/08/06 03:34:16;;;;;;;0.60;0.60;;;23.70;99.90;;;;;;5043894;28;20472;-41
2021/08/06 03:36:48;;;;;;;2.90;0.70;;;23.70;99.90;;;;;;5046069;28;20492;-41
2021/08/06 03:39:18;;;;;;;0.70;0.70;;;23.70;99.90;;;;;;5038544;28;20586;-41
2021/08/06 03:41:50;;;;;;;0.60;0.60;;;23.50;99.90;;;;;;5039463;28;20486;-42
2021/08/06 03:44:22;;;;;;;0.60;0.60;;;23.50;99.90;;;;;;5039528;28;20453;-43
2021/08/06 03:46:53;;;;;;;0.87;0.50;;;23.40;99.90;;;;;;5039139;28;20474;-43
2021/08/06 03:49:24;;;;;;;0.50;0.50;;;23.40;99.90;;;;;;5039340;28;20477;-43
2021/08/06 03:51:55;;;;;;;2.40;0.50;;;23.30;99.90;;;;;;5036402;28;20477;-42
2021/08/06 03:54:26;;;;;;;0.47;0.47;;;23.20;99.90;;;;;;5039491;28;20485;-42
2021/08/06 03:56:57;;;;;;;1.00;0.53;;;23.10;99.90;;;;;;5038317;28;20841;-41
2021/08/06 03:59:30;;;;;;;0.60;0.60;;;23.10;99.90;;;;;;5041684;28;20514;-41
2021/08/06 04:02:01;;;;;;;0.53;0.50;;;23.20;99.90;;;;;;5040501;28;20438;-41
2021/08/06 04:04:32;;;;;;;1.03;0.60;;;23.20;99.90;;;;;;5038877;28;20434;-41
2021/08/06 04:07:03;;;;;;;0.60;0.47;;;23.20;99.90;;;;;;5041431;28;20448;-42
2021/08/06 04:09:34;;;;;;;0.40;0.40;;;23.10;99.90;;;;;;5039628;28;20446;-41
2021/08/06 04:12:06;;;;;;;0.80;0.50;;;23.00;99.90;;;;;;5035294;28;20461;-41
2021/08/06 04:14:38;;;;;;;0.50;0.50;;;22.90;99.90;;;;;;5038155;28;20829;-42
2021/08/06 04:17:09;;;;;;;0.70;0.43;;;22.80;99.90;;;;;;5038559;28;20551;-43
2021/08/06 04:19:40;;;;;;;0.77;0.77;;;22.70;99.90;;;;;;5039501;28;20453;-43
2021/08/06 04:22:12;;;;;;;0.60;0.50;;;22.60;99.90;;;;;;5036954;28;20499;-42
2021/08/06 04:24:42;;;;;;;0.47;0.47;;;22.60;99.90;;;;;;5026191;28;20424;-42
2021/08/06 04:27:13;;;;;;;0.70;0.67;;;22.60;99.90;;;;;;5039659;28;20518;-42
2021/08/06 04:29:47;;;;;;;0.63;0.60;;;22.60;99.90;;;;;;5043649;28;20529;-43
2021/08/06 04:32:18;;;;;;;0.97;0.53;;;22.50;99.90;;;;;;5081191;27;20769;-41
2021/08/06 04:34:49;;;;;;;0.60;0.60;;;22.50;99.90;;;;;;5042492;28;20412;-42
2021/08/06 04:37:20;;;;;;;0.50;0.50;;;22.40;99.90;;;;;;5063698;27;20456;-41
2021/08/06 04:39:51;;;;;;;0.70;0.67;;;22.40;99.90;;;;;;5045572;28;20457;-42
2021/08/06 04:42:22;;;;;;;0.40;0.37;;;22.30;99.90;;;;;;5045311;28;20922;-42
2021/08/06 04:44:54;;;;;;;4.00;0.70;;;22.30;99.90;;;;;;5032897;28;20477;-43
2021/08/06 04:47:25;;;;;;;0.50;0.40;;;22.20;99.90;;;;;;5042059;28;20439;-43
2021/08/06 04:49:56;;;;;;;0.40;0.40;;;22.20;99.90;;;;;;5050461;28;20464;-43
2021/08/06 04:52:27;;;;;;;0.40;0.40;;;22.10;99.90;;;;;;5039601;28;20457;-42
2021/08/06 04:54:58;;;;;;;0.50;0.50;;;22.10;99.90;;;;;;5024332;28;20429;-43
2021/08/06 04:57:29;;;;;;;1.70;0.60;;;22.00;99.90;;;;;;5033749;28;20489;-41
2021/08/06 05:00:02;;;;;;;0.77;0.50;;;22.00;99.90;;;;;;5045026;28;20428;-42
2021/08/06 05:02:33;;;;;;;0.47;0.40;;;21.90;99.90;;;;;;5091565;27;20445;-43
2021/08/06 05:05:05;;;;;;;1.70;0.50;;;21.80;99.90;;;;;;5041605;28;20491;-42
2021/08/06 05:07:36;;;;;;;1.17;0.53;;;21.90;99.90;;;;;;5043155;28;20450;-42
2021/08/06 05:10:08;;;;;;;0.73;0.50;;;21.90;99.90;;;;;;5038953;28;20762;-42
2021/08/06 05:12:39;;;;;;;2.93;0.50;;;21.80;99.90;;;;;;5041355;28;20481;-42
2021/08/06 05:15:12;;;;;;;2.00;0.50;;;21.80;99.90;;;;;;5040141;28;20473;-42
2021/08/06 05:17:43;;;;;;;0.50;0.50;;;21.80;99.90;;;;;;5056197;28;20487;-42
2021/08/06 05:20:15;;;;;;;0.50;0.50;;;21.90;99.90;;;;;;5044526;28;20517;-42
2021/08/06 05:22:46;;;;;;;0.70;0.70;;;21.80;99.90;;;;;;5040901;28;20528;-43
2021/08/06 05:25:18;;;;;;;1.37;0.40;;;21.80;99.90;;;;;;5040527;28;20967;-43
2021/08/06 05:27:49;;;;;;;0.40;0.40;;;21.80;99.90;;;;;;5043897;28;20471;-43
2021/08/06 05:30:22;;;;;;;2.60;0.40;;;21.80;99.90;;;;;;5039825;28;20473;-42
2021/08/06 05:32:53;;;;;;;0.50;0.50;;;21.80;99.90;;;;;;5041089;28;20572;-43
2021/08/06 05:35:24;;;;;;;0.80;0.57;;;21.90;99.90;;;;;;5045900;27;20581;-44
2021/08/06 05:37:57;;;;;;;0.40;0.30;;;21.90;99.90;;;;;;5042982;28;20986;-43
2021/08/06 05:40:28;;;;;;;1.47;0.50;;;21.80;99.90;;;;;;5039481;28;20428;-42
2021/08/06 05:42:59;;;;;;;0.90;0.40;;;21.90;99.90;;;;;;5049145;28;20468;-44
2021/08/06 05:45:31;;;;;;;0.40;0.30;;;21.80;99.90;;;;;;5040328;28;20450;-42
2021/08/06 05:48:02;;;;;;;0.40;0.40;;;21.80;99.90;;;;;;5048224;28;20465;-40
2021/08/06 05:50:39;;;;;;;0.70;0.40;;;21.80;99.90;;;;;;5049143;28;20464;-43
2021/08/06 05:53:11;;;;;;;0.43;0.40;;;21.80;99.90;;;;;;5051109;28;20520;-43
2021/08/06 05:55:41;;;;;;;0.53;0.53;;;21.70;99.90;;;;;;5052225;28;20514;-43
2021/08/06 05:58:12;;;;;;;0.50;0.30;;;21.70;99.90;;;;;;5050164;28;20477;-43
2021/08/06 06:00:45;;;;;;;0.87;0.87;;;21.70;99.90;;;;;;5045906;28;20548;-44
2021/08/06 06:03:17;;;;;;;0.90;0.30;;;21.60;99.90;;;;;;5110030;27;20446;-43
2021/08/06 06:05:48;;;;;;;0.50;0.20;;;21.50;99.90;;;;;;5039777;28;20438;-43
2021/08/06 06:08:19;;;;;;;0.40;0.27;;;21.40;99.90;;;;;;5040757;28;20564;-43
2021/08/06 06:10:50;;;;;;;0.50;0.43;;;21.40;99.90;;;;;;5040184;28;20428;-43
2021/08/06 06:13:21;;;;;;;0.40;0.30;;;21.30;99.90;;;;;;5040749;28;20428;-43
2021/08/06 06:15:54;;;;;;;0.40;0.27;;;21.40;99.90;;;;;;5040973;28;20506;-44
2021/08/06 06:18:25;;;;;;;0.70;0.47;;;21.30;99.90;;;;;;5044355;28;20591;-42
2021/08/06 06:20:58;;;;;;;0.50;0.50;;;21.20;99.90;;;;;;5043943;28;20935;-42
2021/08/06 06:23:29;;;;;;;0.50;0.40;;;21.20;99.90;;;;;;5035502;28;20481;-44
2021/08/06 06:26:00;;;;;;;0.87;0.50;;;21.20;99.90;;;;;;5039352;28;20821;-42
2021/08/06 06:28:31;;;;;;;1.33;0.67;;;21.10;99.90;;;;;;5040618;28;20429;-42
2021/08/06 06:31:04;;;;;;;0.40;0.40;;;21.10;99.90;;;;;;5040773;28;20505;-42
2021/08/06 06:33:35;;;;;;;0.70;0.50;;;21.10;99.90;;;;;;5054782;27;20568;-42
2021/08/06 06:36:06;;;;;;;3.20;0.40;;;21.10;99.90;;;;;;5038732;28;20462;-42
2021/08/06 06:38:37;;;;;;;1.33;0.50;;;21.10;99.90;;;;;;5048994;28;20506;-42
2021/08/06 06:41:08;;;;;;;0.60;0.50;;;21.20;99.90;;;;;;5041408;28;20428;-42
2021/08/06 06:43:39;;;;;;;0.60;0.60;;;21.20;99.90;;;;;;5050325;28;20428;-42
2021/08/06 06:46:12;;;;;;;0.97;0.60;;;21.10;99.90;;;;;;5040584;28;20477;-43
2021/08/06 06:48:42;;;;;;;0.63;0.63;;;21.10;99.90;;;;;;5051561;28;20568;-43
2021/08/06 06:51:13;;;;;;;0.50;0.50;;;21.00;99.90;;;;;;5043354;28;20454;-42
2021/08/06 06:53:46;;;;;;;0.50;0.50;;;21.00;99.90;;;;;;5039472;28;20449;-42
2021/08/06 06:56:16;;;;;;;1.00;0.57;;;21.00;99.90;;;;;;5047032;28;20423;-43
2021/08/06 06:58:47;;;;;;;0.77;0.50;;;21.10;99.90;;;;;;5043345;28;20451;-43
2021/08/06 07:01:20;;;;;;;1.07;0.43;;;21.10;99.90;;;;;;5040952;28;20447;-43
2021/08/06 07:03:51;;;;;;;0.60;0.60;;;21.20;99.90;;;;;;5036977;28;20552;-43
2021/08/06 07:06:22;;;;;;;0.87;0.50;;;21.20;99.90;;;;;;5038718;28;20478;-43
2021/08/06 07:08:53;;;;;;;0.50;0.30;;;21.20;99.90;;;;;;5039861;28;20796;-43
2021/08/06 07:11:24;;;;;;;0.80;0.60;;;21.20;99.90;;;;;;5039373;28;20476;-43
2021/08/06 07:13:55;;;;;;;2.30;0.50;;;21.20;99.90;;;;;;5039709;28;20442;-43
2021/08/06 07:16:28;;;;;;;0.50;0.50;;;21.20;99.90;;;;;;5031760;28;20503;-43
2021/08/06 07:18:59;;;;;;;0.50;0.40;;;21.20;99.90;;;;;;5050883;28;20481;-42
2021/08/06 07:21:30;;;;;;;0.50;0.50;;;21.30;99.90;;;;;;5047976;28;20443;-42
2021/08/06 07:24:01;;;;;;;0.60;0.60;;;21.30;99.90;;;;;;5038884;28;20457;-42
2021/08/06 07:26:32;;;;;;;1.43;0.60;;;21.20;99.90;;;;;;5029929;28;20538;-42
2021/08/06 07:29:03;;;;;;;0.77;0.77;;;21.30;99.90;;;;;;5041689;28;20445;-43
2021/08/06 07:31:36;;;;;;;1.07;0.70;;;21.30;99.90;;;;;;5045982;28;21185;-42
2021/08/06 07:34:07;;;;;;;0.80;0.63;;;21.30;99.90;;;;;;5055412;28;20466;-42
2021/08/06 07:36:38;;;;;;;0.60;0.57;;;21.30;99.90;;;;;;5038442;28;20453;-42
2021/08/06 07:39:09;;;;;;;1.70;0.90;;;21.30;99.90;;;;;;5043478;28;20485;-42
2021/08/06 07:41:40;;;;;;;0.90;0.70;;;21.30;99.90;;;;;;5038898;28;20476;-43
2021/08/06 07:44:11;;;;;;;0.60;0.60;;;21.40;99.90;;;;;;5044838;28;20460;-43
2021/08/06 07:46:44;;;;;;;0.80;0.80;;;21.30;99.90;;;;;;5040530;28;20445;-42
2021/08/06 07:49:15;;;;;;;1.23;0.60;;;21.30;99.90;;;;;;5037023;28;20980;-44
2021/08/06 07:51:46;;;;;;;1.30;0.60;;;21.30;99.90;;;;;;5040820;28;20499;-43
2021/08/06 07:54:17;;;;;;;0.93;0.80;;;21.30;99.90;;;;;;5040957;28;20477;-43
2021/08/06 07:56:48;;;;;;;0.60;0.60;;;21.30;99.90;;;;;;5038812;28;20453;-41
2021/08/06 07:59:21;;;;;;;1.63;1.03;;;21.30;99.90;;;;;;5039555;28;20943;-42
2021/08/06 08:01:54;;;;;;;0.87;0.60;;;21.30;99.90;;;;;;5053593;27;20428;-42
2021/08/06 08:04:25;;;;;;;0.80;0.80;;;21.30;99.90;;;;;;5026970;28;20783;-42
2021/08/06 08:06:56;;;;;;;1.17;0.47;;;21.30;99.90;;;;;;5046190;28;20943;-41
2021/08/06 08:09:27;;;;;;;0.50;0.50;;;21.20;99.90;;;;;;5042545;28;20532;-44
2021/08/06 08:11:58;;;;;;;0.70;0.70;;;21.20;99.90;;;;;;5042206;28;20445;-42
2021/08/06 08:14:28;;;;;;;0.70;0.37;;;21.20;99.90;;;;;;5026853;28;20415;-44
2021/08/06 08:17:01;;;;;;;1.20;0.70;;;21.30;99.90;;;;;;5047372;28;20536;-42
2021/08/06 08:19:32;;;;;;;0.40;0.40;;;21.30;99.90;;;;;;5045398;28;20463;-43
2021/08/06 08:22:03;;;;;;;0.60;0.60;;;21.30;99.90;;;;;;5041512;28;20542;-43
2021/08/06 08:24:34;;;;;;;0.70;0.70;;;21.30;99.90;;;;;;5039017;28;20898;-43
2021/08/06 08:27:05;;;;;;;0.60;0.60;;;21.30;99.90;;;;;;5029440;28;20445;-43
2021/08/06 08:29:37;;;;;;;1.03;0.50;;;21.30;99.90;;;;;;5034457;28;20552;-43
2021/08/06 08:32:29;;;;;;;0.50;0.50;;;21.30;99.90;;;;;;5069232;27;20492;-43
2021/08/06 08:35:00;;;;;;;0.67;0.67;;;21.30;99.90;;;;;;5041522;28;20439;-42
2021/08/06 08:37:31;;;;;;;0.80;0.70;;;21.30;99.90;;;;;;5041142;28;20508;-42
2021/08/06 08:40:02;;;;;;;1.03;0.40;;;21.40;99.90;;;;;;5049505;28;20451;-42
2021/08/06 08:42:33;;;;;;;0.60;0.40;;;21.30;99.90;;;;;;5042008;28;20485;-42
2021/08/06 08:45:04;;;;;;;1.47;0.50;;;21.30;99.90;;;;;;5042614;28;20519;-42
2021/08/06 08:47:43;;;;;;;0.80;0.63;;;21.30;99.90;;;;;;5052792;28;20464;-42
2021/08/06 08:50:15;;;;;;;0.50;0.50;;;21.30;99.90;;;;;;5025680;28;20565;-42
2021/08/06 08:52:46;;;;;;;0.67;0.60;;;21.30;99.90;;;;;;5045040;28;20932;-42
2021/08/06 08:55:17;;;;;;;0.90;0.70;;;21.30;99.90;;;;;;5041925;28;20432;-43
2021/08/06 08:57:49;;;;;;;0.70;0.60;;;21.30;99.90;;;;;;5041659;28;20454;-42
2021/08/06 09:00:20;;;;;;;0.60;0.50;;;21.30;99.90;;;;;;5042980;28;20446;-42
2021/08/06 09:02:53;;;;;;;0.57;0.50;;;21.30;99.90;;;;;;5064427;27;20444;-42
2021/08/06 09:05:25;;;;;;;0.97;0.40;;;21.30;99.90;;;;;;5047706;28;20450;-42
2021/08/06 09:07:58;;;;;;;0.40;0.40;;;21.30;99.90;;;;;;5042402;28;20479;-41
2021/08/06 09:10:30;;;;;;;0.50;0.40;;;21.30;99.90;;;;;;5036803;28;20520;-42
2021/08/06 09:13:03;;;;;;;0.50;0.50;;;21.40;99.90;;;;;;5045577;28;20447;-41
2021/08/06 09:15:47;;;;;;;0.73;0.33;;;21.40;99.90;;;;;;5044036;28;20444;-41
2021/08/06 09:18:35;;;;;;;0.30;0.20;;;21.50;99.90;;;;;;5040870;28;20481;-41
2021/08/06 09:21:20;;;;;;;0.40;0.20;;;21.50;99.90;;;;;;5040902;28;20429;-42
2021/08/06 09:23:53;;;;;;;0.40;0.20;;;21.50;99.90;;;;;;5039948;28;20752;-42
2021/08/06 09:26:38;;;;;;;0.30;0.20;;;21.40;99.90;;;;;;5037767;28;20424;-43
2021/08/06 09:29:10;;;;;;;0.30;0.20;;;21.30;99.90;;;;;;5043760;28;20606;-42
2021/08/06 09:31:43;;;;;;;0.40;0.20;;;21.30;99.90;;;;;;5048831;28;20449;-43
2021/08/06 09:34:19;;;;;;;0.40;0.33;;;21.40;99.90;;;;;;5041423;28;20460;-43
2021/08/06 09:37:02;;;;;;;2.30;0.30;;;21.40;99.90;;;;;;5039780;28;20460;-42
2021/08/06 09:39:36;;;;;;;0.40;0.30;;;21.30;99.90;;;;;;5041425;28;20463;-42
2021/08/06 09:42:15;;;;;;;1.20;0.63;;;21.40;99.90;;;;;;5042898;28;20456;-42
2021/08/06 09:44:49;;;;;;;0.47;0.40;;;21.30;99.90;;;;;;5026618;28;20446;-42
2021/08/06 09:47:22;;;;;;;1.70;0.57;;;21.20;99.90;;;;;;5041548;28;20436;-41
2021/08/06 09:49:57;;;;;;;0.50;0.40;;;21.10;99.90;;;;;;5037597;28;20428;-42
2021/08/06 09:52:32;;;;;;;1.60;0.60;;;21.10;99.90;;;;;;5039507;28;20427;-42
2021/08/06 09:55:26;;;;;;;0.77;0.60;;;21.20;99.90;;;;;;5041200;28;20433;-42
2021/08/06 09:57:58;;;;;;;0.70;0.63;;;21.20;99.90;;;;;;5040813;28;20459;-42
2021/08/06 10:00:32;;;;;;;1.37;0.50;;;21.10;99.90;;;;;;5044664;28;20518;-42
2021/08/06 10:03:04;;;;;;;0.77;0.50;;;21.00;99.90;;;;;;5040739;28;20445;-42
2021/08/06 10:05:36;;;;;;;0.83;0.50;;;20.80;99.90;;;;;;5041504;28;20465;-42
2021/08/06 10:08:07;;;;;;;0.40;0.30;;;20.70;99.90;;;;;;5042979;28;20432;-43
2021/08/06 10:10:38;;;;;;;0.50;0.40;;;20.70;99.90;;;;;;5043930;28;21314;-42
2021/08/06 10:13:09;;;;;;;0.63;0.60;;;20.70;99.90;;;;;;5051691;28;20449;-42
2021/08/06 10:15:40;;;;;;;0.60;0.30;;;20.70;99.90;;;;;;5047405;28;20453;-41
2021/08/06 10:18:11;;;;;;;0.77;0.37;;;20.60;99.90;;;;;;5044583;28;20427;-42
2021/08/06 10:20:45;;;;;;;2.20;0.73;;;20.60;99.90;;;;;;5040015;28;20571;-42
2021/08/06 10:23:17;;;;;;;1.00;0.40;;;20.60;99.90;;;;;;5039799;28;20477;-42
2021/08/06 10:25:48;;;;;;;0.80;0.47;;;20.40;99.90;;;;;;5041433;28;20440;-42
2021/08/06 10:28:20;;;;;;;0.57;0.40;;;20.50;99.90;;;;;;5040085;28;20428;-42
2021/08/06 10:30:51;;;;;;;1.00;1.00;;;20.40;99.90;;;;;;5036895;28;20456;-41
2021/08/06 10:33:26;;;;;;;0.40;0.40;;;20.30;99.90;;;;;;5040880;28;20468;-42
2021/08/06 10:36:02;;;;;;;1.27;0.43;;;20.30;99.90;;;;;;5043150;28;20477;-41
2021/08/06 10:38:37;;;;;;;0.60;0.50;;;20.30;99.90;;;;;;5043382;28;20443;-42
2021/08/06 10:41:14;;;;;;;1.37;0.40;;;20.30;99.90;;;;;;5040473;28;20487;-42
2021/08/06 10:44:02;;;;;;;1.13;0.60;;;20.20;99.90;;;;;;5040578;28;20510;-42
2021/08/06 10:46:57;;;;;;;0.40;0.40;;;20.10;99.90;;;;;;5046473;28;20516;-42
2021/08/06 10:49:29;;;;;;;0.40;0.30;;;20.00;99.90;;;;;;5030759;28;20460;-42
2021/08/06 10:52:23;;;;;;;0.30;0.30;;;20.00;99.90;;;;;;5038960;28;20502;-41
2021/08/06 10:55:14;;;;;;;0.63;0.43;;;20.00;99.90;;;;;;5040190;28;20449;-41
2021/08/06 10:57:44;;;;;;;3.10;0.40;;;19.90;99.90;;;;;;5046817;28;20433;-42
2021/08/06 11:00:36;;;;;;;0.50;0.50;;;19.80;99.90;;;;;;5042518;28;20454;-41
2021/08/06 11:03:36;;;;;;;0.60;0.40;;;19.60;99.90;;;;;;5046756;27;20493;-42
2021/08/06 11:06:35;;;;;;;0.50;0.50;;;19.40;99.90;;;;;;5039387;28;20432;-42
2021/08/06 11:09:08;;;;;;;0.60;0.53;;;19.40;99.90;;;;;;5039761;28;20481;-42
2021/08/06 11:11:53;;;;;;;0.50;0.50;;;19.50;99.90;;;;;;5039795;28;20620;-42
2021/08/06 11:14:53;;;;;;;2.87;0.73;;;19.30;99.90;;;;;;5031984;28;20472;-41
2021/08/06 11:17:25;;;;;;;0.60;0.40;;;19.40;99.90;;;;;;5100249;28;20454;-42
2021/08/06 11:19:58;;;;;;;0.40;0.40;;;19.40;99.90;;;;;;5104408;28;20468;-42
2021/08/06 11:22:31;;;;;;;0.70;0.37;;;19.40;99.90;;;;;;5105672;28;20490;-41
2021/08/06 11:25:08;;;;;;;1.10;0.70;;;19.40;99.90;;;;;;5100660;28;20533;-41
2021/08/06 11:27:41;;;;;;;1.10;1.00;;;19.50;99.90;;;;;;5102297;28;20409;-41
2021/08/06 11:30:14;;;;;;;0.60;0.43;;;19.40;99.90;;;;;;5105314;28;20461;-42
2021/08/06 11:32:55;;;;;;;0.50;0.30;;;19.50;99.90;;;;;;5100740;28;20459;-42
2021/08/06 11:35:30;;;;;;;0.50;0.37;;;19.60;99.90;;;;;;5099300;28;20457;-41
2021/08/06 11:38:03;;;;;;;4.40;0.40;;;19.60;99.90;;;;;;5106412;28;20544;-41
2021/08/06 11:40:36;;;;;;;1.70;0.30;;;19.60;99.90;;;;;;5104204;28;20489;-41
2021/08/06 11:43:13;;;;;;;0.30;0.30;;;19.60;99.90;;;;;;5110751;28;20449;-40
2021/08/06 11:45:46;;;;;;;0.50;0.20;;;19.60;99.90;;;;;;5104252;28;20421;-41
2021/08/06 11:48:17;;;;;;;3.70;0.50;;;19.60;99.90;;;;;;5104585;28;20446;-41
2021/08/06 11:50:50;;;;;;;0.83;0.50;;;19.60;99.90;;;;;;5093967;28;20457;-42
2021/08/06 11:53:23;;;;;;;0.30;0.20;;;19.60;99.90;;;;;;5043025;28;20431;-42
2021/08/06 11:55:57;;;;;;;0.40;0.27;;;19.60;99.90;;;;;;5037177;28;20449;-41
2021/08/06 11:58:34;;;;;;;0.30;0.20;;;19.60;99.90;;;;;;5043220;28;20471;-41
2021/08/06 12:01:07;;;;;;;0.40;0.20;;;19.50;99.90;;;;;;5047442;28;20459;-41
2021/08/06 12:03:46;;;;;;;0.50;0.30;;;19.50;99.90;;;;;;5081842;27;20509;-40
2021/08/06 12:06:17;;;;;;;0.40;0.30;;;19.60;99.90;;;;;;5061146;27;20460;-41
2021/08/06 12:08:49;;;;;;;0.33;0.23;;;19.50;99.90;;;;;;5026868;28;20461;-41
2021/08/06 12:11:24;;;;;;;0.60;0.40;;;19.60;99.90;;;;;;5043003;28;20464;-41
2021/08/06 12:13:58;;;;;;;0.83;0.30;;;19.60;99.90;;;;;;5042146;28;20521;-41
2021/08/06 12:16:31;;;;;;;0.60;0.37;;;19.50;99.90;;;;;;5039983;28;20490;-40
2021/08/06 12:19:04;;;;;;;0.97;0.20;;;19.50;99.90;;;;;;5042959;28;20453;-41
2021/08/06 12:21:37;;;;;;;0.40;0.20;;;19.40;99.90;;;;;;5048077;28;20512;-41
2021/08/06 12:24:10;;;;;;;0.40;0.30;;;19.50;99.90;;;;;;5044720;28;20485;-41
2021/08/06 12:26:48;;;;;;;0.87;0.60;;;19.40;99.90;;;;;;5046191;28;20485;-42
2021/08/06 12:29:20;;;;;;;0.50;0.40;;;19.40;99.90;;;;;;5044353;28;20445;-42
2021/08/06 12:31:55;;;;;;;0.30;0.30;;;19.50;99.90;;;;;;5049227;28;20444;-41
2021/08/06 12:34:28;;;;;;;0.40;0.20;;;19.40;99.90;;;;;;5085231;27;20488;-41
2021/08/06 12:37:01;;;;;;;0.50;0.30;;;19.30;99.90;;;;;;5041374;28;20455;-40
2021/08/06 12:39:34;;;;;;;0.40;0.40;;;19.40;99.90;;;;;;5041369;28;20456;-41
2021/08/06 12:42:15;;;;;;;0.37;0.30;;;19.40;99.90;;;;;;5045953;28;20488;-41
2021/08/06 12:44:55;;;;;;;0.37;0.30;;;19.50;99.90;;;;;;5042871;28;20424;-41
2021/08/06 12:47:27;;;;;;;0.40;0.20;;;19.50;99.90;;;;;;5028764;28;20433;-40
2021/08/06 12:50:00;;;;;;;0.40;0.30;;;19.40;99.90;;;;;;5046339;28;20449;-42
2021/08/06 12:52:35;;;;;;;0.40;0.23;;;19.40;99.90;;;;;;5042141;28;20436;-42
2021/08/06 12:55:11;;;;;;;0.30;0.20;;;19.40;99.90;;;;;;5043327;28;20445;-40
2021/08/06 12:57:53;;;;;;;0.50;0.23;;;19.40;99.90;;;;;;5042476;28;20553;-40
2021/08/06 13:00:26;;;;;;;0.70;0.30;;;19.40;99.90;;;;;;5043562;28;20560;-41
2021/08/06 13:03:09;;;;;;;0.50;0.27;;;19.40;99.90;;;;;;5047494;27;20453;-39
2021/08/06 13:05:56;;;;;;;0.40;0.40;;;19.40;99.90;;;;;;5050085;27;20867;-41
2021/08/06 13:08:29;;;;;;;0.47;0.40;;;19.40;99.90;;;;;;5046501;28;20469;-41
2021/08/06 13:11:10;;;;;;;0.40;0.30;;;19.40;99.90;;;;;;5044424;28;20454;-42
2021/08/06 13:13:45;;;;;;;0.83;0.40;;;19.40;99.90;;;;;;5035849;28;20457;-41
2021/08/06 13:16:18;;;;;;;0.90;0.47;;;19.40;99.90;;;;;;5042887;28;20445;-41
2021/08/06 13:18:49;;;;;;;0.40;0.30;;;19.50;99.90;;;;;;5050919;28;20544;-42
2021/08/06 13:21:20;;;;;;;2.00;0.30;;;19.50;99.90;;;;;;5040192;28;20513;-42